This is the latest recevied weather packets stored in our database for station/object HARMAJA. If no packets are shown the sender has not sent any weather packets the latest 1 day(s).
| Time | Temp. | Humidity | Pressure | Rain* | Wind** | Luminosity | Snow |
|---|---|---|---|---|---|---|---|
| 1778016438 | 5° C | 68% | 1008.2 hPa | - | 8.49 m/s, 273° | - | - |
| 1778015238 | 5.56° C | 68% | 1008 hPa | - | 6.71 m/s, 275° | - | - |
| 1778014038 | 5.56° C | 63% | 1007.7 hPa | - | 8.05 m/s, 278° | - | - |
| 1778012838 | 5.56° C | 62% | 1007.5 hPa | - | 8.05 m/s, 278° | - | - |
| 1778011638 | 6.11° C | 61% | 1007.3 hPa | - | 8.05 m/s, 274° | - | - |
| 1778010437 | 6.11° C | 60% | 1007.1 hPa | - | 8.49 m/s, 273° | - | - |
| 1778009238 | 6.67° C | 58% | 1007 hPa | - | 8.49 m/s, 270° | - | - |
| 1778008037 | 6.67° C | 55% | 1006.8 hPa | - | 8.49 m/s, 268° | - | - |
| 1778006837 | 6.67° C | 54% | 1006.7 hPa | - | 8.05 m/s, 266° | - | - |
| 1778005637 | 7.22° C | 55% | 1006.4 hPa | - | 7.6 m/s, 266° | - | - |
| 1778004437 | 7.22° C | 56% | 1006.3 hPa | - | 7.6 m/s, 267° | - | - |
| 1778003237 | 7.22° C | 57% | 1006.1 hPa | - | 8.05 m/s, 261° | - | - |
| 1778002037 | 7.78° C | 58% | 1006 hPa | - | 8.05 m/s, 266° | - | - |
| 1778000837 | 7.78° C | 52% | 1005.9 hPa | - | 8.49 m/s, 268° | - | - |
| 1777999637 | 7.78° C | 52% | 1005.8 hPa | - | 8.49 m/s, 271° | - | - |
| 1777998437 | 7.22° C | 62% | 1005.7 hPa | - | 8.94 m/s, 247° | - | - |
| 1777997237 | 6.67° C | 72% | 1005.6 hPa | - | 10.28 m/s, 239° | - | - |
| 1777996037 | 6.67° C | 75% | 1005.5 hPa | - | 10.28 m/s, 234° | - | - |
| 1777994836 | 6.67° C | 77% | 1005.3 hPa | - | 9.83 m/s, 235° | - | - |
| 1777993637 | 6.67° C | 80% | 1005.3 hPa | - | 8.94 m/s, 239° | - | - |
| 1777992437 | 7.22° C | 74% | 1005.2 hPa | - | 9.39 m/s, 232° | - | - |
| 1777991236 | 6.67° C | 77% | 1005.2 hPa | - | 9.39 m/s, 231° | - | - |
| 1777990036 | 6.67° C | 80% | 1005.2 hPa | - | 8.94 m/s, 230° | - | - |
| 1777988836 | 6.67° C | 79% | 1005.1 hPa | - | 9.39 m/s, 232° | - | - |
| 1777987636 | 6.67° C | 76% | 1005 hPa | - | 8.49 m/s, 236° | - | - |
* Rain since midnight (hover to see other rain measurements)
** Current wind speed in m/s (hover to see current wind gust speed)